sensor_id;sensor_type;location;lat;lon;timestamp;P1;durP1;ratioP1;P2;durP2;ratioP2
60917;SDS011;46792;38.854;-9.384;2022-12-18T00:01:18;22.23;;;6.00;;
60917;SDS011;46792;38.854;-9.384;2022-12-18T00:03:20;16.65;;;5.78;;
60917;SDS011;46792;38.854;-9.384;2022-12-18T00:05:21;14.65;;;6.30;;
60917;SDS011;46792;38.854;-9.384;2022-12-18T00:07:22;17.65;;;6.55;;
60917;SDS011;46792;38.854;-9.384;2022-12-18T00:09:22;14.02;;;6.95;;
60917;SDS011;46792;38.854;-9.384;2022-12-18T00:11:24;11.98;;;6.53;;
60917;SDS011;46792;38.854;-9.384;2022-12-18T00:13:26;14.45;;;5.10;;
60917;SDS011;46792;38.854;-9.384;2022-12-18T00:15:27;17.95;;;6.97;;
60917;SDS011;46792;38.854;-9.384;2022-12-18T00:17:28;15.00;;;5.63;;
60917;SDS011;46792;38.854;-9.384;2022-12-18T00:19:28;16.77;;;5.25;;
60917;SDS011;46792;38.854;-9.384;2022-12-18T00:21:48;17.08;;;5.78;;
60917;SDS011;46792;38.854;-9.384;2022-12-18T00:23:50;16.92;;;5.40;;
60917;SDS011;46792;38.854;-9.384;2022-12-18T00:25:51;14.60;;;7.47;;
60917;SDS011;46792;38.854;-9.384;2022-12-18T00:27:51;10.35;;;5.50;;
60917;SDS011;46792;38.854;-9.384;2022-12-18T00:29:52;14.40;;;6.00;;
60917;SDS011;46792;38.854;-9.384;2022-12-18T00:32:12;14.50;;;6.30;;
60917;SDS011;46792;38.854;-9.384;2022-12-18T00:34:21;12.90;;;5.68;;
60917;SDS011;46792;38.854;-9.384;2022-12-18T00:36:26;15.30;;;5.43;;
60917;SDS011;46792;38.854;-9.384;2022-12-18T00:38:28;10.68;;;5.35;;
60917;SDS011;46792;38.854;-9.384;2022-12-18T00:40:29;17.15;;;5.40;;
60917;SDS011;46792;38.854;-9.384;2022-12-18T00:42:29;10.95;;;5.00;;
60917;SDS011;46792;38.854;-9.384;2022-12-18T00:44:48;11.23;;;5.80;;
60917;SDS011;46792;38.854;-9.384;2022-12-18T00:46:49;12.40;;;4.78;;
60917;SDS011;46792;38.854;-9.384;2022-12-18T00:48:50;13.55;;;4.95;;
60917;SDS011;46792;38.854;-9.384;2022-12-18T00:50:50;12.68;;;4.90;;
60917;SDS011;46792;38.854;-9.384;2022-12-18T00:52:51;13.93;;;4.90;;
60917;SDS011;46792;38.854;-9.384;2022-12-18T00:55:10;14.45;;;5.00;;
60917;SDS011;46792;38.854;-9.384;2022-12-18T00:57:36;13.45;;;3.83;;
60917;SDS011;46792;38.854;-9.384;2022-12-18T00:59:40;10.10;;;3.38;;
60917;SDS011;46792;38.854;-9.384;2022-12-18T01:01:41;12.57;;;3.97;;
60917;SDS011;46792;38.854;-9.384;2022-12-18T01:03:42;12.98;;;4.25;;
60917;SDS011;46792;38.854;-9.384;2022-12-18T01:05:45;14.38;;;4.10;;
60917;SDS011;46792;38.854;-9.384;2022-12-18T01:07:48;8.32;;;3.72;;
60917;SDS011;46792;38.854;-9.384;2022-12-18T01:09:50;16.42;;;4.25;;
60917;SDS011;46792;38.854;-9.384;2022-12-18T01:11:51;25.38;;;3.80;;
60917;SDS011;46792;38.854;-9.384;2022-12-18T01:13:53;17.83;;;3.45;;
60917;SDS011;46792;38.854;-9.384;2022-12-18T01:15:56;11.57;;;5.07;;
60917;SDS011;46792;38.854;-9.384;2022-12-18T01:17:56;11.82;;;3.53;;
60917;SDS011;46792;38.854;-9.384;2022-12-18T01:19:57;11.38;;;3.53;;
60917;SDS011;46792;38.854;-9.384;2022-12-18T01:21:58;14.13;;;3.47;;
60917;SDS011;46792;38.854;-9.384;2022-12-18T01:23:59;7.22;;;3.35;;
60917;SDS011;46792;38.854;-9.384;2022-12-18T01:26:09;9.98;;;4.57;;
60917;SDS011;46792;38.854;-9.384;2022-12-18T01:28:12;10.00;;;3.47;;
60917;SDS011;46792;38.854;-9.384;2022-12-18T01:30:12;10.10;;;4.07;;
60917;SDS011;46792;38.854;-9.384;2022-12-18T01:32:13;10.10;;;3.58;;
60917;SDS011;46792;38.854;-9.384;2022-12-18T01:34:15;11.57;;;3.85;;
60917;SDS011;46792;38.854;-9.384;2022-12-18T01:36:23;13.80;;;4.00;;
60917;SDS011;46792;38.854;-9.384;2022-12-18T01:38:44;14.20;;;4.35;;
60917;SDS011;46792;38.854;-9.384;2022-12-18T01:40:44;12.10;;;3.92;;
60917;SDS011;46792;38.854;-9.384;2022-12-18T01:42:48;19.88;;;4.55;;
60917;SDS011;46792;38.854;-9.384;2022-12-18T01:45:09;12.77;;;4.22;;
60917;SDS011;46792;38.854;-9.384;2022-12-18T01:47:25;12.40;;;4.07;;
60917;SDS011;46792;38.854;-9.384;2022-12-18T01:49:40;19.83;;;4.28;;
60917;SDS011;46792;38.854;-9.384;2022-12-18T01:51:41;18.65;;;3.88;;
60917;SDS011;46792;38.854;-9.384;2022-12-18T01:53:43;22.77;;;3.88;;
60917;SDS011;46792;38.854;-9.384;2022-12-18T01:57:49;23.75;;;4.20;;
60917;SDS011;46792;38.854;-9.384;2022-12-18T02:02:17;18.70;;;3.80;;
60917;SDS011;46792;38.854;-9.384;2022-12-18T02:07:29;10.73;;;3.00;;
60917;SDS011;46792;38.854;-9.384;2022-12-18T02:09:33;10.07;;;2.78;;
60917;SDS011;46792;38.854;-9.384;2022-12-18T02:18:24;10.48;;;2.92;;
60917;SDS011;46792;38.854;-9.384;2022-12-18T02:20:54;18.50;;;2.72;;
60917;SDS011;46792;38.854;-9.384;2022-12-18T02:29:14;11.23;;;2.70;;
60917;SDS011;46792;38.854;-9.384;2022-12-18T02:31:18;10.43;;;2.47;;
60917;SDS011;46792;38.854;-9.384;2022-12-18T02:33:25;12.45;;;3.00;;
60917;SDS011;46792;38.854;-9.384;2022-12-18T02:35:46;12.75;;;3.78;;
60917;SDS011;46792;38.854;-9.384;2022-12-18T02:38:07;14.23;;;3.30;;
60917;SDS011;46792;38.854;-9.384;2022-12-18T02:40:27;22.13;;;3.25;;
60917;SDS011;46792;38.854;-9.384;2022-12-18T02:42:29;21.45;;;4.07;;
60917;SDS011;46792;38.854;-9.384;2022-12-18T02:44:30;10.68;;;3.10;;
60917;SDS011;46792;38.854;-9.384;2022-12-18T02:46:38;20.35;;;4.43;;
60917;SDS011;46792;38.854;-9.384;2022-12-18T02:48:45;12.30;;;3.42;;
60917;SDS011;46792;38.854;-9.384;2022-12-18T02:53:22;10.38;;;2.80;;
60917;SDS011;46792;38.854;-9.384;2022-12-18T02:55:45;26.00;;;5.53;;
60917;SDS011;46792;38.854;-9.384;2022-12-18T02:58:19;9.98;;;3.70;;
60917;SDS011;46792;38.854;-9.384;2022-12-18T03:00:38;22.30;;;3.70;;
60917;SDS011;46792;38.854;-9.384;2022-12-18T03:02:45;19.75;;;2.63;;
60917;SDS011;46792;38.854;-9.384;2022-12-18T03:04:55;12.63;;;2.33;;
60917;SDS011;46792;38.854;-9.384;2022-12-18T03:07:09;12.68;;;2.45;;
60917;SDS011;46792;38.854;-9.384;2022-12-18T03:09:36;14.60;;;2.90;;
60917;SDS011;46792;38.854;-9.384;2022-12-18T03:14:23;15.43;;;2.13;;
60917;SDS011;46792;38.854;-9.384;2022-12-18T03:16:45;13.88;;;2.58;;
60917;SDS011;46792;38.854;-9.384;2022-12-18T03:18:51;14.23;;;2.10;;
60917;SDS011;46792;38.854;-9.384;2022-12-18T03:20:59;15.02;;;2.78;;
60917;SDS011;46792;38.854;-9.384;2022-12-18T03:25:27;14.60;;;3.20;;
60917;SDS011;46792;38.854;-9.384;2022-12-18T03:27:31;8.82;;;1.60;;
60917;SDS011;46792;38.854;-9.384;2022-12-18T03:29:42;9.60;;;1.88;;
60917;SDS011;46792;38.854;-9.384;2022-12-18T03:31:53;9.98;;;2.40;;
60917;SDS011;46792;38.854;-9.384;2022-12-18T03:34:01;7.72;;;2.05;;
60917;SDS011;46792;38.854;-9.384;2022-12-18T03:36:13;13.35;;;2.45;;
60917;SDS011;46792;38.854;-9.384;2022-12-18T03:38:15;19.80;;;2.97;;
60917;SDS011;46792;38.854;-9.384;2022-12-18T03:44:43;19.30;;;2.97;;
60917;SDS011;46792;38.854;-9.384;2022-12-18T03:49:11;18.88;;;4.03;;
60917;SDS011;46792;38.854;-9.384;2022-12-18T03:51:50;8.45;;;2.33;;
60917;SDS011;46792;38.854;-9.384;2022-12-18T03:54:00;20.02;;;3.22;;
60917;SDS011;46792;38.854;-9.384;2022-12-18T03:56:09;10.90;;;2.42;;
60917;SDS011;46792;38.854;-9.384;2022-12-18T03:58:16;16.52;;;3.38;;
60917;SDS011;46792;38.854;-9.384;2022-12-18T04:00:29;12.10;;;2.83;;
60917;SDS011;46792;38.854;-9.384;2022-12-18T04:02:41;10.93;;;2.13;;
60917;SDS011;46792;38.854;-9.384;2022-12-18T04:04:48;6.35;;;2.22;;
60917;SDS011;46792;38.854;-9.384;2022-12-18T04:06:53;11.40;;;2.58;;
60917;SDS011;46792;38.854;-9.384;2022-12-18T04:08:54;6.28;;;2.50;;
60917;SDS011;46792;38.854;-9.384;2022-12-18T04:10:59;9.60;;;2.03;;
60917;SDS011;46792;38.854;-9.384;2022-12-18T04:13:00;9.40;;;2.45;;
60917;SDS011;46792;38.854;-9.384;2022-12-18T04:15:03;12.05;;;2.50;;
60917;SDS011;46792;38.854;-9.384;2022-12-18T04:17:04;8.00;;;2.90;;
60917;SDS011;46792;38.854;-9.384;2022-12-18T04:19:06;9.50;;;2.20;;
60917;SDS011;46792;38.854;-9.384;2022-12-18T04:21:12;22.52;;;2.88;;
60917;SDS011;46792;38.854;-9.384;2022-12-18T04:23:13;9.63;;;3.00;;
60917;SDS011;46792;38.854;-9.384;2022-12-18T04:25:14;17.60;;;3.58;;
60917;SDS011;46792;38.854;-9.384;2022-12-18T04:27:27;7.93;;;2.17;;
60917;SDS011;46792;38.854;-9.384;2022-12-18T04:29:27;16.50;;;2.92;;
60917;SDS011;46792;38.854;-9.384;2022-12-18T04:31:28;17.35;;;2.63;;
60917;SDS011;46792;38.854;-9.384;2022-12-18T04:33:29;10.93;;;2.50;;
60917;SDS011;46792;38.854;-9.384;2022-12-18T04:35:30;12.88;;;2.63;;
60917;SDS011;46792;38.854;-9.384;2022-12-18T04:37:31;8.43;;;2.13;;
60917;SDS011;46792;38.854;-9.384;2022-12-18T04:39:31;8.45;;;2.60;;
60917;SDS011;46792;38.854;-9.384;2022-12-18T04:41:37;11.93;;;2.60;;
60917;SDS011;46792;38.854;-9.384;2022-12-18T04:43:57;14.80;;;2.90;;
60917;SDS011;46792;38.854;-9.384;2022-12-18T04:46:01;9.23;;;2.30;;
60917;SDS011;46792;38.854;-9.384;2022-12-18T04:48:10;19.65;;;3.40;;
60917;SDS011;46792;38.854;-9.384;2022-12-18T04:50:11;11.55;;;3.30;;
60917;SDS011;46792;38.854;-9.384;2022-12-18T04:52:11;16.83;;;3.63;;
60917;SDS011;46792;38.854;-9.384;2022-12-18T04:54:13;15.82;;;4.53;;
60917;SDS011;46792;38.854;-9.384;2022-12-18T04:56:15;11.00;;;3.00;;
60917;SDS011;46792;38.854;-9.384;2022-12-18T04:58:53;11.80;;;2.83;;
60917;SDS011;46792;38.854;-9.384;2022-12-18T05:01:12;29.05;;;3.53;;
60917;SDS011;46792;38.854;-9.384;2022-12-18T05:03:14;10.85;;;2.95;;
60917;SDS011;46792;38.854;-9.384;2022-12-18T05:05:15;20.02;;;3.92;;
60917;SDS011;46792;38.854;-9.384;2022-12-18T05:07:16;23.40;;;3.42;;
60917;SDS011;46792;38.854;-9.384;2022-12-18T05:09:16;17.20;;;3.17;;
60917;SDS011;46792;38.854;-9.384;2022-12-18T05:11:17;20.52;;;3.88;;
60917;SDS011;46792;38.854;-9.384;2022-12-18T05:13:18;12.98;;;3.78;;
60917;SDS011;46792;38.854;-9.384;2022-12-18T05:15:18;17.85;;;4.60;;
60917;SDS011;46792;38.854;-9.384;2022-12-18T05:17:19;10.40;;;3.10;;
60917;SDS011;46792;38.854;-9.384;2022-12-18T05:19:19;12.10;;;3.13;;
60917;SDS011;46792;38.854;-9.384;2022-12-18T05:21:38;15.90;;;3.53;;
60917;SDS011;46792;38.854;-9.384;2022-12-18T05:23:39;16.10;;;3.25;;
60917;SDS011;46792;38.854;-9.384;2022-12-18T05:25:52;11.77;;;3.22;;
60917;SDS011;46792;38.854;-9.384;2022-12-18T05:27:54;13.02;;;2.22;;
60917;SDS011;46792;38.854;-9.384;2022-12-18T05:30:13;12.50;;;2.85;;
60917;SDS011;46792;38.854;-9.384;2022-12-18T05:32:33;10.80;;;2.78;;
60917;SDS011;46792;38.854;-9.384;2022-12-18T05:34:34;16.58;;;3.55;;
60917;SDS011;46792;38.854;-9.384;2022-12-18T05:36:34;17.98;;;3.75;;
60917;SDS011;46792;38.854;-9.384;2022-12-18T05:38:36;14.95;;;2.60;;
60917;SDS011;46792;38.854;-9.384;2022-12-18T05:40:40;20.58;;;4.57;;
60917;SDS011;46792;38.854;-9.384;2022-12-18T05:42:42;17.10;;;3.53;;
60917;SDS011;46792;38.854;-9.384;2022-12-18T05:45:01;12.63;;;2.78;;
60917;SDS011;46792;38.854;-9.384;2022-12-18T05:47:02;14.35;;;3.33;;
60917;SDS011;46792;38.854;-9.384;2022-12-18T05:49:02;16.52;;;3.30;;
60917;SDS011;46792;38.854;-9.384;2022-12-18T05:51:06;17.67;;;2.95;;
60917;SDS011;46792;38.854;-9.384;2022-12-18T05:53:09;9.32;;;2.50;;
60917;SDS011;46792;38.854;-9.384;2022-12-18T05:55:09;9.98;;;2.80;;
60917;SDS011;46792;38.854;-9.384;2022-12-18T05:57:28;11.60;;;3.10;;
60917;SDS011;46792;38.854;-9.384;2022-12-18T05:59:29;24.30;;;3.53;;
60917;SDS011;46792;38.854;-9.384;2022-12-18T06:01:30;6.72;;;2.10;;
60917;SDS011;46792;38.854;-9.384;2022-12-18T06:03:30;19.40;;;3.25;;
60917;SDS011;46792;38.854;-9.384;2022-12-18T06:05:36;8.23;;;2.80;;
60917;SDS011;46792;38.854;-9.384;2022-12-18T06:10:35;12.70;;;3.33;;
60917;SDS011;46792;38.854;-9.384;2022-12-18T06:12:35;22.90;;;3.42;;
60917;SDS011;46792;38.854;-9.384;2022-12-18T06:14:36;15.75;;;3.13;;
60917;SDS011;46792;38.854;-9.384;2022-12-18T06:16:37;14.88;;;3.22;;
60917;SDS011;46792;38.854;-9.384;2022-12-18T06:18:37;18.95;;;3.22;;
60917;SDS011;46792;38.854;-9.384;2022-12-18T06:20:38;18.50;;;2.97;;
60917;SDS011;46792;38.854;-9.384;2022-12-18T06:22:41;16.30;;;2.95;;
60917;SDS011;46792;38.854;-9.384;2022-12-18T06:24:42;15.18;;;3.10;;
60917;SDS011;46792;38.854;-9.384;2022-12-18T06:26:42;18.60;;;2.92;;
60917;SDS011;46792;38.854;-9.384;2022-12-18T06:28:57;14.45;;;2.20;;
60917;SDS011;46792;38.854;-9.384;2022-12-18T06:31:16;23.67;;;3.67;;
60917;SDS011;46792;38.854;-9.384;2022-12-18T06:33:16;24.73;;;3.45;;
60917;SDS011;46792;38.854;-9.384;2022-12-18T06:35:17;17.30;;;2.85;;
60917;SDS011;46792;38.854;-9.384;2022-12-18T06:40:39;14.65;;;3.40;;
60917;SDS011;46792;38.854;-9.384;2022-12-18T06:42:40;19.88;;;3.55;;
60917;SDS011;46792;38.854;-9.384;2022-12-18T06:44:40;17.58;;;2.55;;
60917;SDS011;46792;38.854;-9.384;2022-12-18T06:46:47;19.00;;;3.05;;
60917;SDS011;46792;38.854;-9.384;2022-12-18T06:48:48;15.98;;;3.20;;
60917;SDS011;46792;38.854;-9.384;2022-12-18T06:50:50;17.20;;;2.78;;
60917;SDS011;46792;38.854;-9.384;2022-12-18T06:52:50;15.73;;;3.35;;
60917;SDS011;46792;38.854;-9.384;2022-12-18T06:57:50;13.75;;;2.55;;
60917;SDS011;46792;38.854;-9.384;2022-12-18T06:59:51;27.98;;;3.83;;
60917;SDS011;46792;38.854;-9.384;2022-12-18T07:01:52;22.35;;;3.25;;
60917;SDS011;46792;38.854;-9.384;2022-12-18T07:03:53;20.40;;;3.10;;
60917;SDS011;46792;38.854;-9.384;2022-12-18T07:05:55;15.77;;;3.03;;
60917;SDS011;46792;38.854;-9.384;2022-12-18T07:08:14;13.90;;;2.65;;
60917;SDS011;46792;38.854;-9.384;2022-12-18T07:10:33;9.18;;;2.60;;
60917;SDS011;46792;38.854;-9.384;2022-12-18T07:12:34;12.00;;;2.40;;
60917;SDS011;46792;38.854;-9.384;2022-12-18T07:14:35;19.17;;;3.38;;
60917;SDS011;46792;38.854;-9.384;2022-12-18T07:16:36;20.60;;;3.70;;
60917;SDS011;46792;38.854;-9.384;2022-12-18T07:18:36;12.02;;;2.70;;
60917;SDS011;46792;38.854;-9.384;2022-12-18T07:20:37;16.65;;;2.38;;
60917;SDS011;46792;38.854;-9.384;2022-12-18T07:23:16;12.18;;;2.45;;
60917;SDS011;46792;38.854;-9.384;2022-12-18T07:25:16;8.85;;;2.38;;
60917;SDS011;46792;38.854;-9.384;2022-12-18T07:27:17;10.90;;;2.70;;
60917;SDS011;46792;38.854;-9.384;2022-12-18T07:29:17;13.40;;;2.78;;
60917;SDS011;46792;38.854;-9.384;2022-12-18T07:31:19;12.10;;;3.28;;
60917;SDS011;46792;38.854;-9.384;2022-12-18T07:33:40;15.68;;;3.47;;
60917;SDS011;46792;38.854;-9.384;2022-12-18T07:35:43;9.90;;;3.25;;
60917;SDS011;46792;38.854;-9.384;2022-12-18T07:37:44;11.50;;;2.95;;
60917;SDS011;46792;38.854;-9.384;2022-12-18T07:39:45;12.38;;;3.40;;
60917;SDS011;46792;38.854;-9.384;2022-12-18T07:41:46;13.50;;;2.88;;
60917;SDS011;46792;38.854;-9.384;2022-12-18T07:44:09;15.90;;;3.22;;
60917;SDS011;46792;38.854;-9.384;2022-12-18T07:46:11;14.23;;;2.55;;
60917;SDS011;46792;38.854;-9.384;2022-12-18T07:48:27;10.20;;;2.28;;
60917;SDS011;46792;38.854;-9.384;2022-12-18T07:53:52;18.48;;;3.28;;
60917;SDS011;46792;38.854;-9.384;2022-12-18T07:55:59;12.98;;;2.40;;
60917;SDS011;46792;38.854;-9.384;2022-12-18T07:58:02;13.35;;;3.08;;
60917;SDS011;46792;38.854;-9.384;2022-12-18T08:00:04;7.22;;;2.33;;
60917;SDS011;46792;38.854;-9.384;2022-12-18T08:02:18;10.68;;;2.47;;
60917;SDS011;46792;38.854;-9.384;2022-12-18T08:04:19;9.93;;;2.35;;
60917;SDS011;46792;38.854;-9.384;2022-12-18T08:06:19;19.10;;;3.13;;
60917;SDS011;46792;38.854;-9.384;2022-12-18T08:08:20;14.75;;;2.88;;
60917;SDS011;46792;38.854;-9.384;2022-12-18T08:10:21;9.27;;;2.33;;
60917;SDS011;46792;38.854;-9.384;2022-12-18T08:12:21;15.05;;;2.65;;
60917;SDS011;46792;38.854;-9.384;2022-12-18T08:14:22;9.77;;;2.50;;
60917;SDS011;46792;38.854;-9.384;2022-12-18T08:16:24;22.05;;;3.58;;
60917;SDS011;46792;38.854;-9.384;2022-12-18T08:18:27;6.60;;;1.92;;
60917;SDS011;46792;38.854;-9.384;2022-12-18T08:20:32;17.20;;;3.38;;
60917;SDS011;46792;38.854;-9.384;2022-12-18T08:22:33;13.02;;;3.17;;
60917;SDS011;46792;38.854;-9.384;2022-12-18T08:24:38;16.00;;;2.78;;
60917;SDS011;46792;38.854;-9.384;2022-12-18T08:26:39;18.83;;;3.20;;
60917;SDS011;46792;38.854;-9.384;2022-12-18T08:28:40;15.82;;;2.75;;
60917;SDS011;46792;38.854;-9.384;2022-12-18T08:31:15;15.82;;;2.92;;
60917;SDS011;46792;38.854;-9.384;2022-12-18T08:33:16;18.67;;;4.70;;
60917;SDS011;46792;38.854;-9.384;2022-12-18T08:35:17;14.02;;;3.22;;
60917;SDS011;46792;38.854;-9.384;2022-12-18T08:39:56;6.45;;;2.20;;
60917;SDS011;46792;38.854;-9.384;2022-12-18T08:41:57;13.68;;;2.85;;
60917;SDS011;46792;38.854;-9.384;2022-12-18T08:44:16;13.00;;;4.18;;
60917;SDS011;46792;38.854;-9.384;2022-12-18T08:46:36;14.35;;;3.22;;
60917;SDS011;46792;38.854;-9.384;2022-12-18T08:48:39;14.27;;;3.45;;
60917;SDS011;46792;38.854;-9.384;2022-12-18T08:50:39;16.88;;;3.28;;
60917;SDS011;46792;38.854;-9.384;2022-12-18T08:52:40;19.63;;;2.78;;
60917;SDS011;46792;38.854;-9.384;2022-12-18T08:54:41;23.52;;;9.07;;
60917;SDS011;46792;38.854;-9.384;2022-12-18T08:56:41;12.75;;;2.78;;
60917;SDS011;46792;38.854;-9.384;2022-12-18T08:59:00;10.15;;;2.60;;
60917;SDS011;46792;38.854;-9.384;2022-12-18T09:01:02;10.30;;;2.78;;
60917;SDS011;46792;38.854;-9.384;2022-12-18T09:03:03;19.42;;;3.20;;
60917;SDS011;46792;38.854;-9.384;2022-12-18T09:10:31;13.55;;;4.78;;
60917;SDS011;46792;38.854;-9.384;2022-12-18T09:12:33;11.93;;;3.20;;
60917;SDS011;46792;38.854;-9.384;2022-12-18T09:14:35;13.43;;;2.97;;
60917;SDS011;46792;38.854;-9.384;2022-12-18T09:16:36;13.13;;;2.70;;
60917;SDS011;46792;38.854;-9.384;2022-12-18T09:18:36;5.95;;;2.58;;
60917;SDS011;46792;38.854;-9.384;2022-12-18T09:20:37;11.00;;;2.60;;
60917;SDS011;46792;38.854;-9.384;2022-12-18T09:22:38;14.05;;;2.58;;
60917;SDS011;46792;38.854;-9.384;2022-12-18T09:24:39;16.77;;;2.65;;
60917;SDS011;46792;38.854;-9.384;2022-12-18T09:26:39;14.07;;;3.88;;
60917;SDS011;46792;38.854;-9.384;2022-12-18T09:28:40;18.35;;;3.60;;
60917;SDS011;46792;38.854;-9.384;2022-12-18T09:30:43;16.20;;;5.85;;
60917;SDS011;46792;38.854;-9.384;2022-12-18T09:32:45;7.93;;;3.67;;
60917;SDS011;46792;38.854;-9.384;2022-12-18T09:34:45;13.90;;;4.45;;
60917;SDS011;46792;38.854;-9.384;2022-12-18T09:36:47;18.63;;;4.28;;
60917;SDS011;46792;38.854;-9.384;2022-12-18T09:38:48;11.93;;;4.03;;
60917;SDS011;46792;38.854;-9.384;2022-12-18T09:40:49;19.00;;;5.65;;
60917;SDS011;46792;38.854;-9.384;2022-12-18T09:42:56;12.90;;;4.00;;
60917;SDS011;46792;38.854;-9.384;2022-12-18T09:45:02;13.52;;;6.88;;
60917;SDS011;46792;38.854;-9.384;2022-12-18T09:49:14;8.90;;;3.40;;
60917;SDS011;46792;38.854;-9.384;2022-12-18T09:51:25;18.75;;;3.83;;
60917;SDS011;46792;38.854;-9.384;2022-12-18T09:53:39;16.60;;;5.15;;
60917;SDS011;46792;38.854;-9.384;2022-12-18T09:55:45;13.02;;;3.22;;
60917;SDS011;46792;38.854;-9.384;2022-12-18T09:57:49;16.23;;;4.43;;
60917;SDS011;46792;38.854;-9.384;2022-12-18T09:59:55;10.13;;;3.22;;
60917;SDS011;46792;38.854;-9.384;2022-12-18T10:01:59;14.82;;;3.10;;
60917;SDS011;46792;38.854;-9.384;2022-12-18T10:03:59;10.20;;;3.80;;
60917;SDS011;46792;38.854;-9.384;2022-12-18T10:06:14;7.90;;;3.28;;
60917;SDS011;46792;38.854;-9.384;2022-12-18T10:08:25;11.68;;;4.95;;
60917;SDS011;46792;38.854;-9.384;2022-12-18T10:15:27;15.77;;;3.85;;
60917;SDS011;46792;38.854;-9.384;2022-12-18T10:17:36;17.50;;;3.53;;
60917;SDS011;46792;38.854;-9.384;2022-12-18T10:19:44;16.65;;;4.57;;
60917;SDS011;46792;38.854;-9.384;2022-12-18T10:26:17;21.42;;;3.67;;
60917;SDS011;46792;38.854;-9.384;2022-12-18T10:28:18;14.98;;;3.38;;
60917;SDS011;46792;38.854;-9.384;2022-12-18T10:30:21;12.88;;;3.70;;
60917;SDS011;46792;38.854;-9.384;2022-12-18T10:32:24;9.73;;;3.75;;
60917;SDS011;46792;38.854;-9.384;2022-12-18T10:34:27;22.27;;;3.45;;
60917;SDS011;46792;38.854;-9.384;2022-12-18T10:36:27;13.43;;;2.97;;
60917;SDS011;46792;38.854;-9.384;2022-12-18T10:38:29;10.18;;;3.78;;
60917;SDS011;46792;38.854;-9.384;2022-12-18T10:40:32;14.23;;;3.20;;
60917;SDS011;46792;38.854;-9.384;2022-12-18T10:45:16;19.33;;;7.40;;
60917;SDS011;46792;38.854;-9.384;2022-12-18T10:47:20;18.30;;;3.40;;
60917;SDS011;46792;38.854;-9.384;2022-12-18T10:49:40;16.42;;;3.40;;
60917;SDS011;46792;38.854;-9.384;2022-12-18T10:52:14;16.65;;;3.60;;
60917;SDS011;46792;38.854;-9.384;2022-12-18T10:54:21;17.00;;;5.05;;
60917;SDS011;46792;38.854;-9.384;2022-12-18T10:56:26;11.88;;;3.20;;
60917;SDS011;46792;38.854;-9.384;2022-12-18T10:58:29;14.15;;;3.45;;
60917;SDS011;46792;38.854;-9.384;2022-12-18T11:00:35;12.88;;;3.40;;
60917;SDS011;46792;38.854;-9.384;2022-12-18T11:02:37;15.13;;;4.68;;
60917;SDS011;46792;38.854;-9.384;2022-12-18T11:04:40;12.18;;;4.30;;
60917;SDS011;46792;38.854;-9.384;2022-12-18T11:06:52;9.98;;;3.28;;
60917;SDS011;46792;38.854;-9.384;2022-12-18T11:09:20;10.50;;;3.03;;
60917;SDS011;46792;38.854;-9.384;2022-12-18T11:11:23;10.10;;;4.15;;
60917;SDS011;46792;38.854;-9.384;2022-12-18T11:13:25;12.35;;;2.72;;
60917;SDS011;46792;38.854;-9.384;2022-12-18T11:15:29;9.98;;;3.60;;
60917;SDS011;46792;38.854;-9.384;2022-12-18T11:17:31;9.50;;;2.80;;
60917;SDS011;46792;38.854;-9.384;2022-12-18T11:19:36;18.08;;;2.80;;
60917;SDS011;46792;38.854;-9.384;2022-12-18T11:21:40;6.65;;;2.25;;
60917;SDS011;46792;38.854;-9.384;2022-12-18T11:23:46;14.48;;;2.97;;
60917;SDS011;46792;38.854;-9.384;2022-12-18T11:25:59;18.55;;;2.42;;
60917;SDS011;46792;38.854;-9.384;2022-12-18T11:30:40;9.95;;;2.65;;
60917;SDS011;46792;38.854;-9.384;2022-12-18T11:37:16;9.10;;;2.38;;
60917;SDS011;46792;38.854;-9.384;2022-12-18T11:41:46;9.27;;;2.85;;
60917;SDS011;46792;38.854;-9.384;2022-12-18T11:44:09;5.78;;;2.10;;
60917;SDS011;46792;38.854;-9.384;2022-12-18T11:46:33;10.43;;;2.50;;
60917;SDS011;46792;38.854;-9.384;2022-12-18T11:49:01;13.98;;;2.70;;
60917;SDS011;46792;38.854;-9.384;2022-12-18T11:53:52;11.52;;;2.75;;
60917;SDS011;46792;38.854;-9.384;2022-12-18T11:56:03;13.30;;;2.60;;
60917;SDS011;46792;38.854;-9.384;2022-12-18T12:03:36;8.20;;;2.22;;
60917;SDS011;46792;38.854;-9.384;2022-12-18T12:06:03;10.63;;;2.30;;
60917;SDS011;46792;38.854;-9.384;2022-12-18T12:13:23;12.15;;;2.05;;
60917;SDS011;46792;38.854;-9.384;2022-12-18T12:18:13;11.07;;;2.75;;
60917;SDS011;46792;38.854;-9.384;2022-12-18T12:27:41;9.15;;;2.35;;
60917;SDS011;46792;38.854;-9.384;2022-12-18T12:32:07;10.63;;;2.13;;
60917;SDS011;46792;38.854;-9.384;2022-12-18T12:34:36;5.40;;;1.67;;
60917;SDS011;46792;38.854;-9.384;2022-12-18T12:39:28;10.35;;;2.53;;
60917;SDS011;46792;38.854;-9.384;2022-12-18T12:41:51;5.70;;;2.80;;
60917;SDS011;46792;38.854;-9.384;2022-12-18T12:44:32;14.45;;;2.63;;
60917;SDS011;46792;38.854;-9.384;2022-12-18T12:46:37;12.30;;;2.33;;
60917;SDS011;46792;38.854;-9.384;2022-12-18T12:48:58;9.25;;;2.35;;
60917;SDS011;46792;38.854;-9.384;2022-12-18T12:51:03;7.50;;;1.90;;
60917;SDS011;46792;38.854;-9.384;2022-12-18T12:53:14;9.32;;;2.30;;
60917;SDS011;46792;38.854;-9.384;2022-12-18T12:55:24;8.55;;;2.53;;
60917;SDS011;46792;38.854;-9.384;2022-12-18T12:57:33;5.25;;;1.98;;
60917;SDS011;46792;38.854;-9.384;2022-12-18T13:02:22;7.78;;;2.28;;
60917;SDS011;46792;38.854;-9.384;2022-12-18T13:09:10;8.30;;;2.30;;
60917;SDS011;46792;38.854;-9.384;2022-12-18T13:11:12;8.30;;;2.00;;
60917;SDS011;46792;38.854;-9.384;2022-12-18T13:14:12;9.88;;;2.42;;
60917;SDS011;46792;38.854;-9.384;2022-12-18T13:16:40;6.88;;;1.92;;
60917;SDS011;46792;38.854;-9.384;2022-12-18T13:19:02;4.65;;;2.35;;
60917;SDS011;46792;38.854;-9.384;2022-12-18T13:21:23;6.95;;;2.10;;
60917;SDS011;46792;38.854;-9.384;2022-12-18T13:23:36;7.03;;;2.20;;
60917;SDS011;46792;38.854;-9.384;2022-12-18T13:25:37;12.77;;;2.05;;
60917;SDS011;46792;38.854;-9.384;2022-12-18T13:29:45;12.80;;;3.13;;
60917;SDS011;46792;38.854;-9.384;2022-12-18T13:34:17;5.28;;;2.03;;
60917;SDS011;46792;38.854;-9.384;2022-12-18T13:38:34;10.93;;;2.15;;
60917;SDS011;46792;38.854;-9.384;2022-12-18T13:42:59;15.55;;;2.83;;
60917;SDS011;46792;38.854;-9.384;2022-12-18T13:47:37;6.37;;;2.17;;
60917;SDS011;46792;38.854;-9.384;2022-12-18T13:49:39;12.02;;;2.25;;
60917;SDS011;46792;38.854;-9.384;2022-12-18T13:51:44;8.90;;;2.90;;
60917;SDS011;46792;38.854;-9.384;2022-12-18T13:53:53;11.38;;;2.15;;
60917;SDS011;46792;38.854;-9.384;2022-12-18T13:56:02;12.38;;;3.65;;
60917;SDS011;46792;38.854;-9.384;2022-12-18T13:58:04;11.68;;;3.22;;
60917;SDS011;46792;38.854;-9.384;2022-12-18T14:02:23;11.27;;;2.47;;
60917;SDS011;46792;38.854;-9.384;2022-12-18T14:04:29;10.63;;;2.00;;
60917;SDS011;46792;38.854;-9.384;2022-12-18T14:06:31;7.97;;;2.38;;
60917;SDS011;46792;38.854;-9.384;2022-12-18T14:08:33;8.48;;;2.53;;
60917;SDS011;46792;38.854;-9.384;2022-12-18T14:10:42;10.20;;;2.53;;
60917;SDS011;46792;38.854;-9.384;2022-12-18T14:12:48;11.25;;;2.67;;
60917;SDS011;46792;38.854;-9.384;2022-12-18T14:15:02;7.03;;;2.67;;
60917;SDS011;46792;38.854;-9.384;2022-12-18T14:17:17;5.03;;;2.17;;
60917;SDS011;46792;38.854;-9.384;2022-12-18T14:19:18;10.13;;;2.70;;
60917;SDS011;46792;38.854;-9.384;2022-12-18T14:23:27;6.78;;;2.28;;
60917;SDS011;46792;38.854;-9.384;2022-12-18T14:25:38;14.52;;;2.90;;
60917;SDS011;46792;38.854;-9.384;2022-12-18T14:27:51;12.23;;;2.55;;
60917;SDS011;46792;38.854;-9.384;2022-12-18T14:29:56;7.00;;;2.33;;
60917;SDS011;46792;38.854;-9.384;2022-12-18T14:32:05;4.65;;;1.95;;
60917;SDS011;46792;38.854;-9.384;2022-12-18T14:34:36;7.97;;;2.00;;